sensor_id;sensor_type;location;lat;lon;timestamp;P1;durP1;ratioP1;P2;durP2;ratioP2
54460;SDS011;69977;49.414;11.010;2023-08-08T00:02:15;3.73;;;2.40;;
54460;SDS011;69977;49.414;11.010;2023-08-08T00:04:41;2.77;;;2.40;;
54460;SDS011;69977;49.414;11.010;2023-08-08T00:07:07;3.33;;;2.20;;
54460;SDS011;69977;49.414;11.010;2023-08-08T00:09:33;2.97;;;2.00;;
54460;SDS011;69977;49.414;11.010;2023-08-08T00:11:59;2.83;;;2.40;;
54460;SDS011;69977;49.414;11.010;2023-08-08T00:14:25;2.40;;;2.20;;
54460;SDS011;69977;49.414;11.010;2023-08-08T00:16:52;3.63;;;2.30;;
54460;SDS011;69977;49.414;11.010;2023-08-08T00:19:18;3.23;;;2.30;;
54460;SDS011;69977;49.414;11.010;2023-08-08T00:21:44;2.60;;;2.40;;
54460;SDS011;69977;49.414;11.010;2023-08-08T00:24:10;2.60;;;2.40;;
54460;SDS011;69977;49.414;11.010;2023-08-08T00:26:36;2.70;;;2.43;;
54460;SDS011;69977;49.414;11.010;2023-08-08T00:29:02;2.10;;;2.00;;
54460;SDS011;69977;49.414;11.010;2023-08-08T00:31:28;2.20;;;2.10;;
54460;SDS011;69977;49.414;11.010;2023-08-08T00:33:55;2.90;;;2.17;;
54460;SDS011;69977;49.414;11.010;2023-08-08T00:36:21;3.40;;;2.30;;
54460;SDS011;69977;49.414;11.010;2023-08-08T00:38:47;2.67;;;1.87;;
54460;SDS011;69977;49.414;11.010;2023-08-08T00:41:14;2.40;;;1.97;;
54460;SDS011;69977;49.414;11.010;2023-08-08T00:43:41;3.00;;;2.30;;
54460;SDS011;69977;49.414;11.010;2023-08-08T00:46:09;3.67;;;2.10;;
54460;SDS011;69977;49.414;11.010;2023-08-08T00:48:35;4.80;;;2.23;;
54460;SDS011;69977;49.414;11.010;2023-08-08T00:51:02;4.07;;;1.60;;
54460;SDS011;69977;49.414;11.010;2023-08-08T00:53:28;2.47;;;1.97;;
54460;SDS011;69977;49.414;11.010;2023-08-08T00:55:58;3.67;;;2.27;;
54460;SDS011;69977;49.414;11.010;2023-08-08T00:58:25;3.97;;;2.23;;
54460;SDS011;69977;49.414;11.010;2023-08-08T01:00:51;2.30;;;2.10;;
54460;SDS011;69977;49.414;11.010;2023-08-08T01:03:20;2.37;;;1.70;;
54460;SDS011;69977;49.414;11.010;2023-08-08T01:05:59;1.80;;;1.70;;
54460;SDS011;69977;49.414;11.010;2023-08-08T01:08:29;2.83;;;2.07;;
54460;SDS011;69977;49.414;11.010;2023-08-08T01:10:57;2.50;;;1.97;;
54460;SDS011;69977;49.414;11.010;2023-08-08T01:13:23;2.00;;;1.90;;
54460;SDS011;69977;49.414;11.010;2023-08-08T01:15:51;2.80;;;2.03;;
54460;SDS011;69977;49.414;11.010;2023-08-08T01:18:18;2.50;;;1.90;;
54460;SDS011;69977;49.414;11.010;2023-08-08T01:20:45;3.83;;;2.10;;
54460;SDS011;69977;49.414;11.010;2023-08-08T01:23:27;2.00;;;1.83;;
54460;SDS011;69977;49.414;11.010;2023-08-08T01:25:55;2.10;;;1.80;;
54460;SDS011;69977;49.414;11.010;2023-08-08T01:28:22;2.20;;;2.00;;
54460;SDS011;69977;49.414;11.010;2023-08-08T01:30:48;3.83;;;1.67;;
54460;SDS011;69977;49.414;11.010;2023-08-08T01:33:14;1.90;;;1.80;;
54460;SDS011;69977;49.414;11.010;2023-08-08T01:35:43;2.07;;;1.87;;
54460;SDS011;69977;49.414;11.010;2023-08-08T01:38:11;3.67;;;1.70;;
54460;SDS011;69977;49.414;11.010;2023-08-08T01:40:40;2.03;;;1.77;;
54460;SDS011;69977;49.414;11.010;2023-08-08T01:43:08;2.00;;;1.70;;
54460;SDS011;69977;49.414;11.010;2023-08-08T01:45:35;2.60;;;1.67;;
54460;SDS011;69977;49.414;11.010;2023-08-08T01:48:05;1.70;;;1.60;;
54460;SDS011;69977;49.414;11.010;2023-08-08T01:50:32;2.97;;;1.50;;
54460;SDS011;69977;49.414;11.010;2023-08-08T01:52:58;4.40;;;1.60;;
54460;SDS011;69977;49.414;11.010;2023-08-08T01:55:24;1.70;;;1.60;;
54460;SDS011;69977;49.414;11.010;2023-08-08T01:57:50;3.40;;;1.53;;
54460;SDS011;69977;49.414;11.010;2023-08-08T02:00:16;3.13;;;2.13;;
54460;SDS011;69977;49.414;11.010;2023-08-08T02:02:42;1.50;;;1.40;;
54460;SDS011;69977;49.414;11.010;2023-08-08T02:05:09;1.73;;;1.63;;
54460;SDS011;69977;49.414;11.010;2023-08-08T02:07:35;1.80;;;1.67;;
54460;SDS011;69977;49.414;11.010;2023-08-08T02:10:01;2.50;;;1.57;;
54460;SDS011;69977;49.414;11.010;2023-08-08T02:12:29;1.77;;;1.50;;
54460;SDS011;69977;49.414;11.010;2023-08-08T02:14:57;1.70;;;1.60;;
54460;SDS011;69977;49.414;11.010;2023-08-08T02:17:24;3.57;;;1.70;;
54460;SDS011;69977;49.414;11.010;2023-08-08T02:19:51;1.60;;;1.50;;
54460;SDS011;69977;49.414;11.010;2023-08-08T02:22:17;1.50;;;1.40;;
54460;SDS011;69977;49.414;11.010;2023-08-08T02:24:43;2.97;;;1.57;;
54460;SDS011;69977;49.414;11.010;2023-08-08T02:27:11;1.60;;;1.50;;
54460;SDS011;69977;49.414;11.010;2023-08-08T02:29:37;1.60;;;1.50;;
54460;SDS011;69977;49.414;11.010;2023-08-08T02:32:03;1.77;;;1.67;;
54460;SDS011;69977;49.414;11.010;2023-08-08T02:34:29;4.37;;;1.67;;
54460;SDS011;69977;49.414;11.010;2023-08-08T02:36:55;1.20;;;1.20;;
54460;SDS011;69977;49.414;11.010;2023-08-08T02:39:22;4.23;;;1.53;;
54460;SDS011;69977;49.414;11.010;2023-08-08T02:41:48;1.50;;;1.40;;
54460;SDS011;69977;49.414;11.010;2023-08-08T02:44:15;2.03;;;1.40;;
54460;SDS011;69977;49.414;11.010;2023-08-08T02:46:41;1.60;;;1.50;;
54460;SDS011;69977;49.414;11.010;2023-08-08T02:49:07;1.33;;;1.27;;
54460;SDS011;69977;49.414;11.010;2023-08-08T02:51:34;3.70;;;1.40;;
54460;SDS011;69977;49.414;11.010;2023-08-08T02:54:00;1.73;;;1.40;;
54460;SDS011;69977;49.414;11.010;2023-08-08T02:56:28;1.27;;;1.27;;
54460;SDS011;69977;49.414;11.010;2023-08-08T02:58:55;1.50;;;1.40;;
54460;SDS011;69977;49.414;11.010;2023-08-08T03:01:21;1.53;;;1.43;;
54460;SDS011;69977;49.414;11.010;2023-08-08T03:03:48;2.37;;;1.40;;
54460;SDS011;69977;49.414;11.010;2023-08-08T03:06:14;1.50;;;1.40;;
54460;SDS011;69977;49.414;11.010;2023-08-08T03:08:40;2.63;;;1.70;;
54460;SDS011;69977;49.414;11.010;2023-08-08T03:11:07;1.50;;;1.40;;
54460;SDS011;69977;49.414;11.010;2023-08-08T03:13:33;2.27;;;2.07;;
54460;SDS011;69977;49.414;11.010;2023-08-08T03:16:00;4.70;;;1.50;;
54460;SDS011;69977;49.414;11.010;2023-08-08T03:18:27;1.60;;;1.50;;
54460;SDS011;69977;49.414;11.010;2023-08-08T03:20:53;2.40;;;1.70;;
54460;SDS011;69977;49.414;11.010;2023-08-08T03:23:20;1.87;;;1.43;;
54460;SDS011;69977;49.414;11.010;2023-08-08T03:25:48;1.40;;;1.30;;
54460;SDS011;69977;49.414;11.010;2023-08-08T03:28:15;2.30;;;1.40;;
54460;SDS011;69977;49.414;11.010;2023-08-08T03:30:41;4.30;;;1.47;;
54460;SDS011;69977;49.414;11.010;2023-08-08T03:33:09;2.17;;;1.33;;
54460;SDS011;69977;49.414;11.010;2023-08-08T03:35:36;2.37;;;1.70;;
54460;SDS011;69977;49.414;11.010;2023-08-08T03:38:02;1.60;;;1.50;;
54460;SDS011;69977;49.414;11.010;2023-08-08T03:40:28;1.73;;;1.60;;
54460;SDS011;69977;49.414;11.010;2023-08-08T03:42:54;1.93;;;1.57;;
54460;SDS011;69977;49.414;11.010;2023-08-08T03:45:20;1.77;;;1.20;;
54460;SDS011;69977;49.414;11.010;2023-08-08T03:47:47;1.20;;;1.20;;
54460;SDS011;69977;49.414;11.010;2023-08-08T03:50:13;1.90;;;1.70;;
54460;SDS011;69977;49.414;11.010;2023-08-08T03:52:39;2.30;;;1.40;;
54460;SDS011;69977;49.414;11.010;2023-08-08T03:55:09;1.37;;;1.27;;
54460;SDS011;69977;49.414;11.010;2023-08-08T03:57:37;3.97;;;1.30;;
54460;SDS011;69977;49.414;11.010;2023-08-08T04:00:03;1.67;;;1.37;;
54460;SDS011;69977;49.414;11.010;2023-08-08T04:02:38;1.30;;;1.20;;
54460;SDS011;69977;49.414;11.010;2023-08-08T04:05:04;1.53;;;1.43;;
54460;SDS011;69977;49.414;11.010;2023-08-08T04:07:30;1.63;;;1.40;;
54460;SDS011;69977;49.414;11.010;2023-08-08T04:09:57;2.90;;;1.37;;
54460;SDS011;69977;49.414;11.010;2023-08-08T04:12:23;1.73;;;1.37;;
54460;SDS011;69977;49.414;11.010;2023-08-08T04:14:50;2.50;;;1.80;;
54460;SDS011;69977;49.414;11.010;2023-08-08T04:17:16;2.83;;;1.77;;
54460;SDS011;69977;49.414;11.010;2023-08-08T04:19:42;2.07;;;1.77;;
54460;SDS011;69977;49.414;11.010;2023-08-08T04:22:08;1.93;;;1.60;;
54460;SDS011;69977;49.414;11.010;2023-08-08T04:24:35;3.40;;;1.80;;
54460;SDS011;69977;49.414;11.010;2023-08-08T04:27:01;2.97;;;1.67;;
54460;SDS011;69977;49.414;11.010;2023-08-08T04:29:28;1.53;;;1.43;;
54460;SDS011;69977;49.414;11.010;2023-08-08T04:31:54;1.83;;;1.73;;
54460;SDS011;69977;49.414;11.010;2023-08-08T04:34:21;1.50;;;1.40;;
54460;SDS011;69977;49.414;11.010;2023-08-08T04:36:47;1.70;;;1.60;;
54460;SDS011;69977;49.414;11.010;2023-08-08T04:39:13;2.97;;;1.60;;
54460;SDS011;69977;49.414;11.010;2023-08-08T04:41:39;2.07;;;1.87;;
54460;SDS011;69977;49.414;11.010;2023-08-08T04:44:05;1.90;;;1.80;;
54460;SDS011;69977;49.414;11.010;2023-08-08T04:46:31;2.50;;;1.60;;
54460;SDS011;69977;49.414;11.010;2023-08-08T04:48:57;1.60;;;1.47;;
54460;SDS011;69977;49.414;11.010;2023-08-08T04:51:24;1.60;;;1.50;;
54460;SDS011;69977;49.414;11.010;2023-08-08T04:53:50;1.73;;;1.53;;
54460;SDS011;69977;49.414;11.010;2023-08-08T04:56:16;1.77;;;1.63;;
54460;SDS011;69977;49.414;11.010;2023-08-08T04:58:42;2.63;;;1.57;;
54460;SDS011;69977;49.414;11.010;2023-08-08T05:01:08;1.80;;;1.70;;
54460;SDS011;69977;49.414;11.010;2023-08-08T05:03:39;1.67;;;1.50;;
54460;SDS011;69977;49.414;11.010;2023-08-08T05:06:05;1.70;;;1.60;;
54460;SDS011;69977;49.414;11.010;2023-08-08T05:08:31;1.90;;;1.80;;
54460;SDS011;69977;49.414;11.010;2023-08-08T05:10:57;2.67;;;1.93;;
54460;SDS011;69977;49.414;11.010;2023-08-08T05:13:23;1.90;;;1.80;;
54460;SDS011;69977;49.414;11.010;2023-08-08T05:15:50;1.70;;;1.60;;
54460;SDS011;69977;49.414;11.010;2023-08-08T05:18:16;1.80;;;1.70;;
54460;SDS011;69977;49.414;11.010;2023-08-08T05:20:42;2.40;;;2.20;;
54460;SDS011;69977;49.414;11.010;2023-08-08T05:23:08;1.97;;;1.87;;
54460;SDS011;69977;49.414;11.010;2023-08-08T05:25:34;2.90;;;1.63;;
54460;SDS011;69977;49.414;11.010;2023-08-08T05:28:00;1.90;;;1.80;;
54460;SDS011;69977;49.414;11.010;2023-08-08T05:30:26;2.03;;;1.93;;
54460;SDS011;69977;49.414;11.010;2023-08-08T05:32:52;2.50;;;1.93;;
54460;SDS011;69977;49.414;11.010;2023-08-08T05:35:19;1.83;;;1.73;;
54460;SDS011;69977;49.414;11.010;2023-08-08T05:37:45;2.07;;;1.83;;
54460;SDS011;69977;49.414;11.010;2023-08-08T05:40:11;2.00;;;1.70;;
54460;SDS011;69977;49.414;11.010;2023-08-08T05:42:38;2.17;;;2.00;;
54460;SDS011;69977;49.414;11.010;2023-08-08T05:45:04;4.87;;;1.87;;
54460;SDS011;69977;49.414;11.010;2023-08-08T05:47:31;2.30;;;1.97;;
54460;SDS011;69977;49.414;11.010;2023-08-08T05:49:57;4.47;;;1.97;;
54460;SDS011;69977;49.414;11.010;2023-08-08T05:52:24;1.70;;;1.60;;
54460;SDS011;69977;49.414;11.010;2023-08-08T05:54:50;1.60;;;1.50;;
54460;SDS011;69977;49.414;11.010;2023-08-08T05:57:16;2.77;;;2.40;;
54460;SDS011;69977;49.414;11.010;2023-08-08T05:59:42;3.37;;;1.87;;
54460;SDS011;69977;49.414;11.010;2023-08-08T06:02:10;1.67;;;1.57;;
54460;SDS011;69977;49.414;11.010;2023-08-08T06:04:36;4.17;;;2.20;;
54460;SDS011;69977;49.414;11.010;2023-08-08T06:07:02;2.07;;;1.73;;
54460;SDS011;69977;49.414;11.010;2023-08-08T06:09:29;1.83;;;1.73;;
54460;SDS011;69977;49.414;11.010;2023-08-08T06:11:56;1.63;;;1.53;;
54460;SDS011;69977;49.414;11.010;2023-08-08T06:14:22;2.73;;;2.10;;
54460;SDS011;69977;49.414;11.010;2023-08-08T06:16:48;2.23;;;1.70;;
54460;SDS011;69977;49.414;11.010;2023-08-08T06:19:15;2.13;;;1.80;;
54460;SDS011;69977;49.414;11.010;2023-08-08T06:21:41;1.93;;;1.77;;
54460;SDS011;69977;49.414;11.010;2023-08-08T06:24:07;2.13;;;1.87;;
54460;SDS011;69977;49.414;11.010;2023-08-08T06:26:34;3.47;;;1.67;;
54460;SDS011;69977;49.414;11.010;2023-08-08T06:29:00;4.67;;;1.77;;
54460;SDS011;69977;49.414;11.010;2023-08-08T06:31:26;2.03;;;1.83;;
54460;SDS011;69977;49.414;11.010;2023-08-08T06:33:52;2.07;;;1.87;;
54460;SDS011;69977;49.414;11.010;2023-08-08T06:36:19;1.67;;;1.57;;
54460;SDS011;69977;49.414;11.010;2023-08-08T06:38:45;2.50;;;1.90;;
54460;SDS011;69977;49.414;11.010;2023-08-08T06:41:11;2.50;;;1.60;;
54460;SDS011;69977;49.414;11.010;2023-08-08T06:43:37;2.03;;;1.83;;
54460;SDS011;69977;49.414;11.010;2023-08-08T06:46:04;3.00;;;1.63;;
54460;SDS011;69977;49.414;11.010;2023-08-08T06:48:30;2.57;;;1.67;;
54460;SDS011;69977;49.414;11.010;2023-08-08T06:50:56;2.03;;;1.40;;
54460;SDS011;69977;49.414;11.010;2023-08-08T06:53:22;1.77;;;1.67;;
54460;SDS011;69977;49.414;11.010;2023-08-08T06:55:49;4.23;;;1.70;;
54460;SDS011;69977;49.414;11.010;2023-08-08T06:58:15;2.97;;;2.00;;
54460;SDS011;69977;49.414;11.010;2023-08-08T07:00:41;1.97;;;1.40;;
54460;SDS011;69977;49.414;11.010;2023-08-08T07:03:07;2.10;;;1.90;;
54460;SDS011;69977;49.414;11.010;2023-08-08T07:05:33;1.87;;;1.40;;
54460;SDS011;69977;49.414;11.010;2023-08-08T07:07:59;2.70;;;1.90;;
54460;SDS011;69977;49.414;11.010;2023-08-08T07:10:25;2.63;;;1.60;;
54460;SDS011;69977;49.414;11.010;2023-08-08T07:12:52;2.43;;;1.70;;
54460;SDS011;69977;49.414;11.010;2023-08-08T07:15:18;1.60;;;1.50;;
54460;SDS011;69977;49.414;11.010;2023-08-08T07:17:44;2.50;;;1.30;;
54460;SDS011;69977;49.414;11.010;2023-08-08T07:20:10;1.73;;;1.40;;
54460;SDS011;69977;49.414;11.010;2023-08-08T07:22:38;2.30;;;1.70;;
54460;SDS011;69977;49.414;11.010;2023-08-08T07:25:05;1.53;;;1.43;;
54460;SDS011;69977;49.414;11.010;2023-08-08T07:27:31;3.73;;;1.77;;
54460;SDS011;69977;49.414;11.010;2023-08-08T07:29:57;5.13;;;1.70;;
54460;SDS011;69977;49.414;11.010;2023-08-08T07:32:24;1.50;;;1.33;;
54460;SDS011;69977;49.414;11.010;2023-08-08T07:34:51;1.43;;;1.33;;
54460;SDS011;69977;49.414;11.010;2023-08-08T07:37:17;1.13;;;1.00;;
54460;SDS011;69977;49.414;11.010;2023-08-08T07:39:43;1.67;;;1.57;;
54460;SDS011;69977;49.414;11.010;2023-08-08T07:42:09;1.07;;;1.07;;
54460;SDS011;69977;49.414;11.010;2023-08-08T07:44:35;2.53;;;1.10;;
54460;SDS011;69977;49.414;11.010;2023-08-08T07:47:03;1.70;;;1.60;;
54460;SDS011;69977;49.414;11.010;2023-08-08T07:49:29;2.63;;;1.37;;
54460;SDS011;69977;49.414;11.010;2023-08-08T07:51:56;2.07;;;1.30;;
54460;SDS011;69977;49.414;11.010;2023-08-08T07:54:22;2.67;;;1.37;;
54460;SDS011;69977;49.414;11.010;2023-08-08T07:56:48;2.50;;;1.30;;
54460;SDS011;69977;49.414;11.010;2023-08-08T07:59:14;2.87;;;1.27;;
54460;SDS011;69977;49.414;11.010;2023-08-08T08:01:41;1.60;;;1.07;;
54460;SDS011;69977;49.414;11.010;2023-08-08T08:04:07;1.87;;;1.27;;
54460;SDS011;69977;49.414;11.010;2023-08-08T08:06:33;1.70;;;1.13;;
54460;SDS011;69977;49.414;11.010;2023-08-08T08:09:00;4.67;;;1.30;;
54460;SDS011;69977;49.414;11.010;2023-08-08T08:11:26;0.93;;;0.93;;
54460;SDS011;69977;49.414;11.010;2023-08-08T08:13:52;1.00;;;1.00;;
54460;SDS011;69977;49.414;11.010;2023-08-08T08:16:18;1.47;;;1.20;;
54460;SDS011;69977;49.414;11.010;2023-08-08T08:18:44;1.30;;;1.20;;
54460;SDS011;69977;49.414;11.010;2023-08-08T08:21:10;1.30;;;1.20;;
54460;SDS011;69977;49.414;11.010;2023-08-08T08:23:38;1.40;;;1.30;;
54460;SDS011;69977;49.414;11.010;2023-08-08T08:26:04;1.57;;;1.00;;
54460;SDS011;69977;49.414;11.010;2023-08-08T08:28:31;1.73;;;1.30;;
54460;SDS011;69977;49.414;11.010;2023-08-08T08:30:57;1.87;;;1.30;;
54460;SDS011;69977;49.414;11.010;2023-08-08T08:33:23;3.60;;;1.40;;
54460;SDS011;69977;49.414;11.010;2023-08-08T08:35:49;2.73;;;1.50;;
54460;SDS011;69977;49.414;11.010;2023-08-08T08:38:15;2.30;;;1.03;;
54460;SDS011;69977;49.414;11.010;2023-08-08T08:40:41;4.80;;;1.43;;
54460;SDS011;69977;49.414;11.010;2023-08-08T08:43:10;1.63;;;0.80;;
54460;SDS011;69977;49.414;11.010;2023-08-08T08:45:37;1.17;;;0.90;;
54460;SDS011;69977;49.414;11.010;2023-08-08T08:48:04;1.40;;;1.30;;
54460;SDS011;69977;49.414;11.010;2023-08-08T08:50:34;1.67;;;0.97;;
54460;SDS011;69977;49.414;11.010;2023-08-08T08:53:00;1.10;;;1.00;;
54460;SDS011;69977;49.414;11.010;2023-08-08T08:55:27;2.30;;;1.00;;
54460;SDS011;69977;49.414;11.010;2023-08-08T08:57:53;1.10;;;1.00;;
54460;SDS011;69977;49.414;11.010;2023-08-08T09:00:20;1.30;;;0.93;;
54460;SDS011;69977;49.414;11.010;2023-08-08T09:02:47;3.00;;;1.00;;
54460;SDS011;69977;49.414;11.010;2023-08-08T09:05:14;3.03;;;1.10;;
54460;SDS011;69977;49.414;11.010;2023-08-08T09:07:41;0.70;;;0.70;;
54460;SDS011;69977;49.414;11.010;2023-08-08T09:10:07;4.27;;;1.23;;
54460;SDS011;69977;49.414;11.010;2023-08-08T09:12:33;1.83;;;1.07;;
54460;SDS011;69977;49.414;11.010;2023-08-08T09:15:01;1.77;;;1.30;;
54460;SDS011;69977;49.414;11.010;2023-08-08T09:17:29;0.80;;;0.80;;
54460;SDS011;69977;49.414;11.010;2023-08-08T09:19:56;3.07;;;0.90;;
54460;SDS011;69977;49.414;11.010;2023-08-08T09:22:23;2.37;;;0.90;;
54460;SDS011;69977;49.414;11.010;2023-08-08T09:24:51;1.97;;;1.10;;
54460;SDS011;69977;49.414;11.010;2023-08-08T09:27:18;0.90;;;0.60;;
54460;SDS011;69977;49.414;11.010;2023-08-08T09:29:44;1.57;;;0.87;;
54460;SDS011;69977;49.414;11.010;2023-08-08T09:32:10;1.30;;;1.00;;
54460;SDS011;69977;49.414;11.010;2023-08-08T09:34:40;3.03;;;1.10;;
54460;SDS011;69977;49.414;11.010;2023-08-08T09:37:07;1.30;;;0.90;;
54460;SDS011;69977;49.414;11.010;2023-08-08T09:39:35;1.50;;;0.90;;
54460;SDS011;69977;49.414;11.010;2023-08-08T09:42:02;1.60;;;0.77;;
54460;SDS011;69977;49.414;11.010;2023-08-08T09:44:29;0.80;;;0.80;;
54460;SDS011;69977;49.414;11.010;2023-08-08T09:46:57;3.00;;;1.07;;
54460;SDS011;69977;49.414;11.010;2023-08-08T09:49:23;1.43;;;1.00;;
54460;SDS011;69977;49.414;11.010;2023-08-08T09:51:49;1.77;;;0.90;;
54460;SDS011;69977;49.414;11.010;2023-08-08T09:54:16;1.20;;;0.80;;
54460;SDS011;69977;49.414;11.010;2023-08-08T09:56:42;1.23;;;0.83;;
54460;SDS011;69977;49.414;11.010;2023-08-08T09:59:09;1.10;;;0.87;;
54460;SDS011;69977;49.414;11.010;2023-08-08T10:01:36;2.03;;;1.13;;
54460;SDS011;69977;49.414;11.010;2023-08-08T10:04:07;1.70;;;1.07;;
54460;SDS011;69977;49.414;11.010;2023-08-08T10:06:33;1.47;;;1.10;;
54460;SDS011;69977;49.414;11.010;2023-08-08T10:09:00;1.70;;;1.13;;
54460;SDS011;69977;49.414;11.010;2023-08-08T10:11:28;1.13;;;0.90;;
54460;SDS011;69977;49.414;11.010;2023-08-08T10:13:55;4.33;;;1.40;;
54460;SDS011;69977;49.414;11.010;2023-08-08T10:16:22;1.13;;;1.03;;
54460;SDS011;69977;49.414;11.010;2023-08-08T10:18:55;1.30;;;1.20;;
54460;SDS011;69977;49.414;11.010;2023-08-08T10:21:25;2.80;;;1.00;;
54460;SDS011;69977;49.414;11.010;2023-08-08T10:24:07;1.93;;;0.93;;
54460;SDS011;69977;49.414;11.010;2023-08-08T10:26:50;1.13;;;0.90;;
54460;SDS011;69977;49.414;11.010;2023-08-08T10:29:19;1.63;;;0.63;;
54460;SDS011;69977;49.414;11.010;2023-08-08T10:31:59;1.53;;;0.90;;
54460;SDS011;69977;49.414;11.010;2023-08-08T10:34:44;2.83;;;1.00;;
54460;SDS011;69977;49.414;11.010;2023-08-08T10:39:48;0.60;;;0.60;;
54460;SDS011;69977;49.414;11.010;2023-08-08T10:42:17;0.87;;;0.87;;
54460;SDS011;69977;49.414;11.010;2023-08-08T10:44:43;1.03;;;0.93;;
54460;SDS011;69977;49.414;11.010;2023-08-08T10:47:10;1.23;;;1.13;;
54460;SDS011;69977;49.414;11.010;2023-08-08T10:49:36;2.30;;;1.10;;
54460;SDS011;69977;49.414;11.010;2023-08-08T10:52:03;2.50;;;1.10;;
54460;SDS011;69977;49.414;11.010;2023-08-08T10:54:30;1.83;;;1.27;;
54460;SDS011;69977;49.414;11.010;2023-08-08T10:56:58;0.90;;;0.83;;
54460;SDS011;69977;49.414;11.010;2023-08-08T10:59:25;1.60;;;1.00;;
54460;SDS011;69977;49.414;11.010;2023-08-08T11:01:52;2.23;;;0.90;;
54460;SDS011;69977;49.414;11.010;2023-08-08T11:04:19;1.23;;;1.00;;
54460;SDS011;69977;49.414;11.010;2023-08-08T11:06:45;3.23;;;1.00;;
54460;SDS011;69977;49.414;11.010;2023-08-08T11:09:15;0.80;;;0.50;;
54460;SDS011;69977;49.414;11.010;2023-08-08T11:11:43;1.60;;;1.23;;
54460;SDS011;69977;49.414;11.010;2023-08-08T11:14:10;3.53;;;1.17;;
54460;SDS011;69977;49.414;11.010;2023-08-08T11:16:36;2.07;;;1.20;;
54460;SDS011;69977;49.414;11.010;2023-08-08T11:19:03;1.13;;;0.80;;
54460;SDS011;69977;49.414;11.010;2023-08-08T11:21:33;2.30;;;1.03;;
54460;SDS011;69977;49.414;11.010;2023-08-08T11:24:00;1.00;;;0.90;;
54460;SDS011;69977;49.414;11.010;2023-08-08T11:26:26;1.17;;;0.83;;
54460;SDS011;69977;49.414;11.010;2023-08-08T11:28:56;0.90;;;0.90;;
54460;SDS011;69977;49.414;11.010;2023-08-08T11:31:23;3.03;;;0.87;;
54460;SDS011;69977;49.414;11.010;2023-08-08T11:33:49;0.70;;;0.70;;
54460;SDS011;69977;49.414;11.010;2023-08-08T11:36:15;1.50;;;1.00;;
54460;SDS011;69977;49.414;11.010;2023-08-08T11:38:42;0.77;;;0.77;;
54460;SDS011;69977;49.414;11.010;2023-08-08T11:41:09;1.10;;;0.80;;
54460;SDS011;69977;49.414;11.010;2023-08-08T11:43:36;1.30;;;1.20;;
54460;SDS011;69977;49.414;11.010;2023-08-08T11:46:02;1.73;;;1.27;;
54460;SDS011;69977;49.414;11.010;2023-08-08T11:48:28;1.00;;;1.00;;
54460;SDS011;69977;49.414;11.010;2023-08-08T11:50:55;1.03;;;0.97;;
54460;SDS011;69977;49.414;11.010;2023-08-08T11:53:22;1.03;;;0.73;;
54460;SDS011;69977;49.414;11.010;2023-08-08T11:55:49;1.07;;;0.97;;
54460;SDS011;69977;49.414;11.010;2023-08-08T11:58:15;0.70;;;0.70;;
54460;SDS011;69977;49.414;11.010;2023-08-08T12:00:42;1.20;;;1.10;;
54460;SDS011;69977;49.414;11.010;2023-08-08T12:03:12;3.30;;;1.20;;
54460;SDS011;69977;49.414;11.010;2023-08-08T12:05:44;1.60;;;1.20;;
54460;SDS011;69977;49.414;11.010;2023-08-08T12:08:11;0.80;;;0.70;;
54460;SDS011;69977;49.414;11.010;2023-08-08T12:10:37;1.83;;;1.00;;
54460;SDS011;69977;49.414;11.010;2023-08-08T12:13:04;1.07;;;1.00;;
54460;SDS011;69977;49.414;11.010;2023-08-08T12:15:32;2.83;;;1.10;;
54460;SDS011;69977;49.414;11.010;2023-08-08T12:18:02;0.97;;;0.90;;
54460;SDS011;69977;49.414;11.010;2023-08-08T12:20:28;1.97;;;1.10;;
54460;SDS011;69977;49.414;11.010;2023-08-08T12:22:56;1.13;;;1.00;;
54460;SDS011;69977;49.414;11.010;2023-08-08T12:25:22;1.20;;;1.00;;
54460;SDS011;69977;49.414;11.010;2023-08-08T12:27:48;1.37;;;1.17;;
54460;SDS011;69977;49.414;11.010;2023-08-08T12:30:15;1.37;;;0.97;;
54460;SDS011;69977;49.414;11.010;2023-08-08T12:32:41;0.93;;;0.90;;
54460;SDS011;69977;49.414;11.010;2023-08-08T12:35:07;1.33;;;1.20;;
54460;SDS011;69977;49.414;11.010;2023-08-08T12:37:33;1.27;;;1.00;;
54460;SDS011;69977;49.414;11.010;2023-08-08T12:39:59;1.10;;;0.90;;
54460;SDS011;69977;49.414;11.010;2023-08-08T12:42:27;1.13;;;0.93;;
54460;SDS011;69977;49.414;11.010;2023-08-08T12:44:53;0.90;;;0.90;;
54460;SDS011;69977;49.414;11.010;2023-08-08T12:47:20;1.40;;;1.30;;
54460;SDS011;69977;49.414;11.010;2023-08-08T12:49:47;2.57;;;1.10;;
54460;SDS011;69977;49.414;11.010;2023-08-08T12:52:13;1.60;;;1.00;;
54460;SDS011;69977;49.414;11.010;2023-08-08T12:54:40;1.33;;;1.20;;
54460;SDS011;69977;49.414;11.010;2023-08-08T12:57:06;2.90;;;1.30;;
54460;SDS011;69977;49.414;11.010;2023-08-08T12:59:32;1.58;;;1.00;;
54460;SDS011;69977;49.414;11.010;2023-08-08T13:01:58;0.90;;;0.70;;
54460;SDS011;69977;49.414;11.010;2023-08-08T13:04:24;1.15;;;1.05;;
54460;SDS011;69977;49.414;11.010;2023-08-08T13:06:50;1.77;;;1.02;;
54460;SDS011;69977;49.414;11.010;2023-08-08T13:09:16;1.20;;;1.00;;
54460;SDS011;69977;49.414;11.010;2023-08-08T13:11:43;1.67;;;1.40;;
54460;SDS011;69977;49.414;11.010;2023-08-08T13:14:09;1.47;;;1.20;;
54460;SDS011;69977;49.414;11.010;2023-08-08T13:16:35;1.20;;;1.10;;
54460;SDS011;69977;49.414;11.010;2023-08-08T13:19:01;1.88;;;1.00;;
54460;SDS011;69977;49.414;11.010;2023-08-08T13:21:28;1.60;;;1.50;;
54460;SDS011;69977;49.414;11.010;2023-08-08T13:23:54;1.83;;;1.35;;
54460;SDS011;69977;49.414;11.010;2023-08-08T13:26:20;1.13;;;1.05;;
54460;SDS011;69977;49.414;11.010;2023-08-08T13:28:47;0.82;;;0.82;;
54460;SDS011;69977;49.414;11.010;2023-08-08T13:31:15;1.40;;;1.30;;
54460;SDS011;69977;49.414;11.010;2023-08-08T13:33:41;1.00;;;1.00;;
54460;SDS011;69977;49.414;11.010;2023-08-08T13:36:07;2.28;;;1.00;;
54460;SDS011;69977;49.414;11.010;2023-08-08T13:38:33;2.00;;;1.30;;
54460;SDS011;69977;49.414;11.010;2023-08-08T13:41:00;1.00;;;1.00;;
54460;SDS011;69977;49.414;11.010;2023-08-08T13:43:26;0.90;;;0.90;;
54460;SDS011;69977;49.414;11.010;2023-08-08T13:45:54;1.40;;;1.30;;
54460;SDS011;69977;49.414;11.010;2023-08-08T13:48:20;1.00;;;1.00;;
54460;SDS011;69977;49.414;11.010;2023-08-08T13:50:46;1.37;;;0.80;;
54460;SDS011;69977;49.414;11.010;2023-08-08T13:53:13;1.67;;;1.20;;
54460;SDS011;69977;49.414;11.010;2023-08-08T13:55:39;1.37;;;1.20;;
54460;SDS011;69977;49.414;11.010;2023-08-08T13:58:06;1.90;;;1.03;;
54460;SDS011;69977;49.414;11.010;2023-08-08T14:00:32;1.80;;;1.00;;
54460;SDS011;69977;49.414;11.010;2023-08-08T14:02:59;2.30;;;1.30;;
54460;SDS011;69977;49.414;11.010;2023-08-08T14:05:25;0.80;;;0.80;;
54460;SDS011;69977;49.414;11.010;2023-08-08T14:07:53;1.10;;;1.03;;
54460;SDS011;69977;49.414;11.010;2023-08-08T14:10:19;1.45;;;1.10;;
54460;SDS011;69977;49.414;11.010;2023-08-08T14:12:45;1.25;;;1.15;;
54460;SDS011;69977;49.414;11.010;2023-08-08T14:15:11;1.10;;;1.00;;
54460;SDS011;69977;49.414;11.010;2023-08-08T14:17:38;2.90;;;0.98;;
54460;SDS011;69977;49.414;11.010;2023-08-08T14:20:04;1.60;;;1.40;;
54460;SDS011;69977;49.414;11.010;2023-08-08T14:22:30;1.90;;;1.27;;
54460;SDS011;69977;49.414;11.010;2023-08-08T14:24:56;1.20;;;1.20;;
54460;SDS011;69977;49.414;11.010;2023-08-08T14:27:23;1.10;;;1.10;;
54460;SDS011;69977;49.414;11.010;2023-08-08T14:29:49;1.00;;;0.87;;
54460;SDS011;69977;49.414;11.010;2023-08-08T14:32:15;4.57;;;1.33;;
54460;SDS011;69977;49.414;11.010;2023-08-08T14:34:42;1.20;;;0.97;;